<?xml version="1.0" encoding="UTF-8" standalone="no" ?>
<gpx xmlns="http://www.topografix.com/GPX/1/1" xmlns:xsi="http://www.w3.org/2001/XMLSchema-instance" xsi:schemaLocation="http://www.topografix.com/GPX/1/1 http://www.topografix.com/GPX/1/1/gpx.xsd" version="1.1" creator="VisuGPX - https://www.visugpx.com">
  <metadata>
    <name>Norvège</name>
  </metadata>
  <trk>
    <name><![CDATA[Tour d'Europe: étape 038]]></name>
    <trkseg>
      <trkpt lat="63.41558" lon="9.0252">
        <ele>63.032022</ele>
        <time>2020-08-05T07:48:48.317Z</time>
      </trkpt>
      <trkpt lat="63.41378" lon="9.02811">
        <ele>63.944425</ele>
        <time>2020-08-05T07:49:35.314Z</time>
      </trkpt>
      <trkpt lat="63.41197" lon="9.02869">
        <ele>76.288946</ele>
        <time>2020-08-05T07:51:20.323Z</time>
      </trkpt>
      <trkpt lat="63.41144" lon="9.02339">
        <ele>88.47172</ele>
        <time>2020-08-05T07:52:25.320Z</time>
      </trkpt>
      <trkpt lat="63.41141" lon="9.01815">
        <ele>83.226822</ele>
        <time>2020-08-05T07:53:05.348Z</time>
      </trkpt>
      <trkpt lat="63.41154" lon="9.01349">
        <ele>81.914141</ele>
        <time>2020-08-05T07:54:05.312Z</time>
      </trkpt>
      <trkpt lat="63.41017" lon="9.0081">
        <ele>73.01052</ele>
        <time>2020-08-05T07:54:47.318Z</time>
      </trkpt>
      <trkpt lat="63.40808" lon="9.01022">
        <ele>59.430631</ele>
        <time>2020-08-05T07:55:16.314Z</time>
      </trkpt>
      <trkpt lat="63.40676" lon="9.0085">
        <ele>74.082061</ele>
        <time>2020-08-05T07:56:24.311Z</time>
      </trkpt>
      <trkpt lat="63.40848" lon="9.00576">
        <ele>83.899052</ele>
        <time>2020-08-05T07:57:39.321Z</time>
      </trkpt>
      <trkpt lat="63.40757" lon="9.00159">
        <ele>63.824034</ele>
        <time>2020-08-05T07:58:19.318Z</time>
      </trkpt>
      <trkpt lat="63.40526" lon="9.00385">
        <ele>58.419003</ele>
        <time>2020-08-05T07:59:02.306Z</time>
      </trkpt>
      <trkpt lat="63.40298" lon="9.00605">
        <ele>56.525129</ele>
        <time>2020-08-05T07:59:49.347Z</time>
      </trkpt>
      <trkpt lat="63.4011" lon="9.00707">
        <ele>55.835006</ele>
        <time>2020-08-05T08:00:53.332Z</time>
      </trkpt>
      <trkpt lat="63.39909" lon="9.00953">
        <ele>53.338127</ele>
        <time>2020-08-05T08:01:27.303Z</time>
      </trkpt>
      <trkpt lat="63.39712" lon="9.0071">
        <ele>55.745707</ele>
        <time>2020-08-05T08:02:20.302Z</time>
      </trkpt>
      <trkpt lat="63.39534" lon="9.00444">
        <ele>58.360291</ele>
        <time>2020-08-05T08:03:20.299Z</time>
      </trkpt>
      <trkpt lat="63.39398" lon="9.0008">
        <ele>61.275501</ele>
        <time>2020-08-05T08:04:40.311Z</time>
      </trkpt>
      <trkpt lat="63.39274" lon="8.99722">
        <ele>64.19518</ele>
        <time>2020-08-05T08:05:43.308Z</time>
      </trkpt>
      <trkpt lat="63.39153" lon="8.99327">
        <ele>68.001156</ele>
        <time>2020-08-05T08:06:43.299Z</time>
      </trkpt>
      <trkpt lat="63.39116" lon="8.98872">
        <ele>81.121241</ele>
        <time>2020-08-05T08:07:50.309Z</time>
      </trkpt>
      <trkpt lat="63.3898" lon="8.98542">
        <ele>81.855722</ele>
        <time>2020-08-05T08:09:06.313Z</time>
      </trkpt>
      <trkpt lat="63.38809" lon="8.98598">
        <ele>95.453786</ele>
        <time>2020-08-05T08:10:44.333Z</time>
      </trkpt>
      <trkpt lat="63.38658" lon="8.98936">
        <ele>96.410394</ele>
        <time>2020-08-05T08:11:39.354Z</time>
      </trkpt>
      <trkpt lat="63.38606" lon="8.99368">
        <ele>95.483258</ele>
        <time>2020-08-05T08:12:48.353Z</time>
      </trkpt>
      <trkpt lat="63.38477" lon="8.99699">
        <ele>98.931367</ele>
        <time>2020-08-05T08:14:01.319Z</time>
      </trkpt>
      <trkpt lat="63.3831" lon="8.99989">
        <ele>102.391176</ele>
        <time>2020-08-05T08:15:21.330Z</time>
      </trkpt>
      <trkpt lat="63.38103" lon="9.00112">
        <ele>98.867246</ele>
        <time>2020-08-05T08:16:23.311Z</time>
      </trkpt>
      <trkpt lat="63.37884" lon="9.00061">
        <ele>96.967086</ele>
        <time>2020-08-05T08:17:23.303Z</time>
      </trkpt>
      <trkpt lat="63.37679" lon="9.00008">
        <ele>98.740709</ele>
        <time>2020-08-05T08:18:25.323Z</time>
      </trkpt>
      <trkpt lat="63.37469" lon="8.99982">
        <ele>101.056132</ele>
        <time>2020-08-05T08:19:17.342Z</time>
      </trkpt>
      <trkpt lat="63.37283" lon="9.00168">
        <ele>108.737037</ele>
        <time>2020-08-05T08:20:41.363Z</time>
      </trkpt>
      <trkpt lat="63.37099" lon="9.00359">
        <ele>114.046208</ele>
        <time>2020-08-05T08:22:00.335Z</time>
      </trkpt>
      <trkpt lat="63.36878" lon="9.00438">
        <ele>109.256631</ele>
        <time>2020-08-05T08:22:53.342Z</time>
      </trkpt>
      <trkpt lat="63.3666" lon="9.00485">
        <ele>105.211171</ele>
        <time>2020-08-05T08:23:23.317Z</time>
      </trkpt>
      <trkpt lat="63.36449" lon="9.00701">
        <ele>101.68315</ele>
        <time>2020-08-05T08:23:57.320Z</time>
      </trkpt>
      <trkpt lat="63.36318" lon="9.01003">
        <ele>101.545122</ele>
        <time>2020-08-05T08:24:37.344Z</time>
      </trkpt>
      <trkpt lat="63.36237" lon="9.01382">
        <ele>101.103632</ele>
        <time>2020-08-05T08:25:19.311Z</time>
      </trkpt>
      <trkpt lat="63.36074" lon="9.01648">
        <ele>110.458204</ele>
        <time>2020-08-05T08:26:45.331Z</time>
      </trkpt>
      <trkpt lat="63.35921" lon="9.01915">
        <ele>121.062052</ele>
        <time>2020-08-05T08:28:50.333Z</time>
      </trkpt>
      <trkpt lat="63.35725" lon="9.01918">
        <ele>130.200177</ele>
        <time>2020-08-05T08:30:38.318Z</time>
      </trkpt>
      <trkpt lat="63.35577" lon="9.01656">
        <ele>138.97389</ele>
        <time>2020-08-05T08:32:53.355Z</time>
      </trkpt>
      <trkpt lat="63.35438" lon="9.01273">
        <ele>141.304513</ele>
        <time>2020-08-05T08:33:55.312Z</time>
      </trkpt>
      <trkpt lat="63.35271" lon="9.0102">
        <ele>146.198803</ele>
        <time>2020-08-05T08:35:14.334Z</time>
      </trkpt>
      <trkpt lat="63.35097" lon="9.00825">
        <ele>154.280857</ele>
        <time>2020-08-05T08:37:03.355Z</time>
      </trkpt>
      <trkpt lat="63.34923" lon="9.00561">
        <ele>152.990507</ele>
        <time>2020-08-05T08:38:05.342Z</time>
      </trkpt>
      <trkpt lat="63.34719" lon="9.00236">
        <ele>151.826985</ele>
        <time>2020-08-05T08:38:55.342Z</time>
      </trkpt>
      <trkpt lat="63.34556" lon="8.99988">
        <ele>156.125176</ele>
        <time>2020-08-05T08:39:50.333Z</time>
      </trkpt>
      <trkpt lat="63.3436" lon="8.9985">
        <ele>157.916991</ele>
        <time>2020-08-05T08:40:40.314Z</time>
      </trkpt>
      <trkpt lat="63.34151" lon="8.99753">
        <ele>158.088736</ele>
        <time>2020-08-05T08:41:47.335Z</time>
      </trkpt>
      <trkpt lat="63.33936" lon="8.99714">
        <ele>162.267828</ele>
        <time>2020-08-05T08:42:47.342Z</time>
      </trkpt>
      <trkpt lat="63.33766" lon="8.99953">
        <ele>168.105111</ele>
        <time>2020-08-05T08:44:15.322Z</time>
      </trkpt>
      <trkpt lat="63.336" lon="9.00266">
        <ele>167.113774</ele>
        <time>2020-08-05T08:45:04.326Z</time>
      </trkpt>
      <trkpt lat="63.33408" lon="9.00606">
        <ele>166.110842</ele>
        <time>2020-08-05T08:46:04.309Z</time>
      </trkpt>
      <trkpt lat="63.33211" lon="9.00834">
        <ele>167.525996</ele>
        <time>2020-08-05T08:47:04.327Z</time>
      </trkpt>
      <trkpt lat="63.32996" lon="9.00956">
        <ele>167.638484</ele>
        <time>2020-08-05T08:48:04.328Z</time>
      </trkpt>
      <trkpt lat="63.32795" lon="9.00773">
        <ele>172.164443</ele>
        <time>2020-08-05T08:49:07.373Z</time>
      </trkpt>
      <trkpt lat="63.32599" lon="9.00677">
        <ele>178.143905</ele>
        <time>2020-08-05T08:50:27.302Z</time>
      </trkpt>
      <trkpt lat="63.32408" lon="9.00785">
        <ele>189.458955</ele>
        <time>2020-08-05T08:51:56.313Z</time>
      </trkpt>
      <trkpt lat="63.32233" lon="9.00962">
        <ele>201.393063</ele>
        <time>2020-08-05T08:53:56.324Z</time>
      </trkpt>
      <trkpt lat="63.32057" lon="9.01179">
        <ele>207.777599</ele>
        <time>2020-08-05T08:55:45.334Z</time>
      </trkpt>
      <trkpt lat="63.31893" lon="9.01465">
        <ele>207.993636</ele>
        <time>2020-08-05T08:57:07.347Z</time>
      </trkpt>
      <trkpt lat="63.31704" lon="9.01523">
        <ele>224.072053</ele>
        <time>2020-08-05T08:59:22.335Z</time>
      </trkpt>
      <trkpt lat="63.31533" lon="9.01693">
        <ele>236.2986</ele>
        <time>2020-08-05T09:01:43.309Z</time>
      </trkpt>
      <trkpt lat="63.3137" lon="9.01941">
        <ele>246.215011</ele>
        <time>2020-08-05T09:03:36.314Z</time>
      </trkpt>
      <trkpt lat="63.31175" lon="9.02">
        <ele>258.11061</ele>
        <time>2020-08-05T09:05:30.370Z</time>
      </trkpt>
      <trkpt lat="63.30996" lon="9.02194">
        <ele>255.36952</ele>
        <time>2020-08-05T09:06:57.379Z</time>
      </trkpt>
      <trkpt lat="63.30796" lon="9.02459">
        <ele>240.005649</ele>
        <time>2020-08-05T09:07:23.375Z</time>
      </trkpt>
      <trkpt lat="63.30568" lon="9.02697">
        <ele>217.029759</ele>
        <time>2020-08-05T09:07:43.311Z</time>
      </trkpt>
      <trkpt lat="63.30385" lon="9.02918">
        <ele>201.477059</ele>
        <time>2020-08-05T09:08:03.331Z</time>
      </trkpt>
      <trkpt lat="63.30207" lon="9.03217">
        <ele>188.710572</ele>
        <time>2020-08-05T09:08:23.322Z</time>
      </trkpt>
      <trkpt lat="63.30044" lon="9.0365">
        <ele>176.610872</ele>
        <time>2020-08-05T09:09:04.323Z</time>
      </trkpt>
      <trkpt lat="63.29887" lon="9.04147">
        <ele>167.737747</ele>
        <time>2020-08-05T09:09:37.323Z</time>
      </trkpt>
      <trkpt lat="63.29839" lon="9.04703">
        <ele>151.406468</ele>
        <time>2020-08-05T09:09:57.362Z</time>
      </trkpt>
      <trkpt lat="63.29859" lon="9.05186">
        <ele>138.957681</ele>
        <time>2020-08-05T09:10:20.306Z</time>
      </trkpt>
      <trkpt lat="63.29763" lon="9.05671">
        <ele>125.002443</ele>
        <time>2020-08-05T09:10:50.341Z</time>
      </trkpt>
      <trkpt lat="63.29716" lon="9.0612">
        <ele>110.303436</ele>
        <time>2020-08-05T09:11:10.341Z</time>
      </trkpt>
      <trkpt lat="63.29625" lon="9.06538">
        <ele>95.939391</ele>
        <time>2020-08-05T09:11:30.365Z</time>
      </trkpt>
      <trkpt lat="63.29504" lon="9.0702">
        <ele>83.961978</ele>
        <time>2020-08-05T09:12:01.318Z</time>
      </trkpt>
      <trkpt lat="63.29487" lon="9.07492">
        <ele>69.932334</ele>
        <time>2020-08-05T09:12:21.369Z</time>
      </trkpt>
      <trkpt lat="63.29416" lon="9.07985">
        <ele>54.26599</ele>
        <time>2020-08-05T09:12:57.327Z</time>
      </trkpt>
      <trkpt lat="63.29266" lon="9.08237">
        <ele>58.397022</ele>
        <time>2020-08-05T09:14:11.326Z</time>
      </trkpt>
      <trkpt lat="63.2926" lon="9.08154">
        <ele>64.383072</ele>
        <time>2020-08-05T09:15:57.311Z</time>
      </trkpt>
      <trkpt lat="63.29166" lon="9.08597">
        <ele>51.626925</ele>
        <time>2020-08-05T09:16:44.322Z</time>
      </trkpt>
      <trkpt lat="63.29029" lon="9.08966">
        <ele>49.279779</ele>
        <time>2020-08-05T09:17:44.330Z</time>
      </trkpt>
      <trkpt lat="63.28846" lon="9.09112">
        <ele>53.18283</ele>
        <time>2020-08-05T09:18:48.348Z</time>
      </trkpt>
      <trkpt lat="63.28659" lon="9.09295">
        <ele>47.632645</ele>
        <time>2020-08-05T09:19:39.336Z</time>
      </trkpt>
      <trkpt lat="63.28613" lon="9.09718">
        <ele>49.050547</ele>
        <time>2020-08-05T09:20:54.361Z</time>
      </trkpt>
      <trkpt lat="63.28717" lon="9.10201">
        <ele>49.628044</ele>
        <time>2020-08-05T09:21:39.342Z</time>
      </trkpt>
      <trkpt lat="63.28882" lon="9.1057">
        <ele>48.773249</ele>
        <time>2020-08-05T09:22:32.312Z</time>
      </trkpt>
      <trkpt lat="63.29021" lon="9.10877">
        <ele>48.51389</ele>
        <time>2020-08-05T09:23:15.331Z</time>
      </trkpt>
      <trkpt lat="63.2912" lon="9.11338">
        <ele>48.515889</ele>
        <time>2020-08-05T09:24:11.325Z</time>
      </trkpt>
      <trkpt lat="63.29328" lon="9.11452">
        <ele>51.422832</ele>
        <time>2020-08-05T09:25:11.333Z</time>
      </trkpt>
      <trkpt lat="63.29417" lon="9.11859">
        <ele>52.127796</ele>
        <time>2020-08-05T09:26:11.322Z</time>
      </trkpt>
      <trkpt lat="63.29562" lon="9.12242">
        <ele>56.50779</ele>
        <time>2020-08-05T09:27:11.317Z</time>
      </trkpt>
      <trkpt lat="63.29737" lon="9.12535">
        <ele>59.040669</ele>
        <time>2020-08-05T09:28:21.301Z</time>
      </trkpt>
      <trkpt lat="63.29927" lon="9.12732">
        <ele>58.694962</ele>
        <time>2020-08-05T09:29:14.355Z</time>
      </trkpt>
      <trkpt lat="63.30121" lon="9.13111">
        <ele>52.982794</ele>
        <time>2020-08-05T09:30:04.323Z</time>
      </trkpt>
      <trkpt lat="63.30324" lon="9.13173">
        <ele>51.585522</ele>
        <time>2020-08-05T09:30:58.321Z</time>
      </trkpt>
      <trkpt lat="63.3051" lon="9.13251">
        <ele>54.064563</ele>
        <time>2020-08-05T09:32:11.343Z</time>
      </trkpt>
      <trkpt lat="63.30742" lon="9.13178">
        <ele>50.674284</ele>
        <time>2020-08-05T09:32:54.339Z</time>
      </trkpt>
      <trkpt lat="63.3094" lon="9.13146">
        <ele>57.070524</ele>
        <time>2020-08-05T09:34:17.327Z</time>
      </trkpt>
      <trkpt lat="63.31061" lon="9.13458">
        <ele>65.799338</ele>
        <time>2020-08-05T09:36:24.332Z</time>
      </trkpt>
      <trkpt lat="63.31146" lon="9.13902">
        <ele>62.991355</ele>
        <time>2020-08-05T09:37:35.356Z</time>
      </trkpt>
      <trkpt lat="63.3123" lon="9.14328">
        <ele>73.352305</ele>
        <time>2020-08-05T09:39:32.338Z</time>
      </trkpt>
      <trkpt lat="63.31378" lon="9.14571">
        <ele>80.197073</ele>
        <time>2020-08-05T09:56:09.323Z</time>
      </trkpt>
      <trkpt lat="63.31577" lon="9.14832">
        <ele>68.228157</ele>
        <time>2020-08-05T09:56:38.341Z</time>
      </trkpt>
      <trkpt lat="63.31794" lon="9.15134">
        <ele>58.888692</ele>
        <time>2020-08-05T09:57:02.358Z</time>
      </trkpt>
      <trkpt lat="63.31905" lon="9.15578">
        <ele>54.601224</ele>
        <time>2020-08-05T09:57:53.332Z</time>
      </trkpt>
      <trkpt lat="63.31991" lon="9.16052">
        <ele>57.307928</ele>
        <time>2020-08-05T09:58:46.327Z</time>
      </trkpt>
      <trkpt lat="63.32058" lon="9.16483">
        <ele>67.044679</ele>
        <time>2020-08-05T09:59:51.319Z</time>
      </trkpt>
      <trkpt lat="63.32138" lon="9.16945">
        <ele>64.568223</ele>
        <time>2020-08-05T10:00:55.325Z</time>
      </trkpt>
      <trkpt lat="63.32279" lon="9.17391">
        <ele>55.920422</ele>
        <time>2020-08-05T10:01:27.347Z</time>
      </trkpt>
      <trkpt lat="63.32423" lon="9.17701">
        <ele>59.018738</ele>
        <time>2020-08-05T10:02:27.336Z</time>
      </trkpt>
      <trkpt lat="63.32525" lon="9.18099">
        <ele>66.322866</ele>
        <time>2020-08-05T10:06:10.332Z</time>
      </trkpt>
      <trkpt lat="63.32859" lon="9.18648">
        <ele>55.638268</ele>
        <time>2020-08-05T10:07:55.345Z</time>
      </trkpt>
      <trkpt lat="63.33045" lon="9.1885">
        <ele>62.616658</ele>
        <time>2020-08-05T10:09:08.332Z</time>
      </trkpt>
      <trkpt lat="63.33206" lon="9.19095">
        <ele>79.183031</ele>
        <time>2020-08-05T10:11:18.312Z</time>
      </trkpt>
      <trkpt lat="63.33285" lon="9.19491">
        <ele>90.625578</ele>
        <time>2020-08-05T10:12:50.348Z</time>
      </trkpt>
      <trkpt lat="63.33296" lon="9.19899">
        <ele>91.763006</ele>
        <time>2020-08-05T10:14:40.329Z</time>
      </trkpt>
      <trkpt lat="63.33376" lon="9.20396">
        <ele>87.001311</ele>
        <time>2020-08-05T10:15:22.351Z</time>
      </trkpt>
      <trkpt lat="63.33564" lon="9.20514">
        <ele>92.33015</ele>
        <time>2020-08-05T10:16:41.313Z</time>
      </trkpt>
      <trkpt lat="63.33652" lon="9.20897">
        <ele>98.573523</ele>
        <time>2020-08-05T10:18:18.317Z</time>
      </trkpt>
      <trkpt lat="63.33723" lon="9.2139">
        <ele>91.091742</ele>
        <time>2020-08-05T10:18:56.323Z</time>
      </trkpt>
      <trkpt lat="63.33734" lon="9.21951">
        <ele>74.803757</ele>
        <time>2020-08-05T10:19:16.353Z</time>
      </trkpt>
      <trkpt lat="63.33604" lon="9.22379">
        <ele>64.377338</ele>
        <time>2020-08-05T10:19:41.335Z</time>
      </trkpt>
      <trkpt lat="63.33367" lon="9.2269">
        <ele>56.967765</ele>
        <time>2020-08-05T10:20:21.304Z</time>
      </trkpt>
      <trkpt lat="63.33154" lon="9.2305">
        <ele>48.932993</ele>
        <time>2020-08-05T10:20:52.351Z</time>
      </trkpt>
      <trkpt lat="63.33126" lon="9.23505">
        <ele>43.318916</ele>
        <time>2020-08-05T10:21:21.313Z</time>
      </trkpt>
      <trkpt lat="63.33228" lon="9.23933">
        <ele>49.256248</ele>
        <time>2020-08-05T10:22:17.354Z</time>
      </trkpt>
      <trkpt lat="63.33389" lon="9.2426">
        <ele>56.588012</ele>
        <time>2020-08-05T10:23:25.338Z</time>
      </trkpt>
      <trkpt lat="63.33579" lon="9.24281">
        <ele>67.709667</ele>
        <time>2020-08-05T10:25:35.326Z</time>
      </trkpt>
      <trkpt lat="63.33773" lon="9.24418">
        <ele>85.421397</ele>
        <time>2020-08-05T10:28:08.403Z</time>
      </trkpt>
      <trkpt lat="63.33935" lon="9.24634">
        <ele>92.978178</ele>
        <time>2020-08-05T10:29:43.364Z</time>
      </trkpt>
      <trkpt lat="63.34194" lon="9.24412">
        <ele>110.568568</ele>
        <time>2020-08-05T10:33:22.352Z</time>
      </trkpt>
      <trkpt lat="63.34365" lon="9.24241">
        <ele>117.244058</ele>
        <time>2020-08-05T10:35:08.344Z</time>
      </trkpt>
      <trkpt lat="63.34529" lon="9.24459">
        <ele>126.483626</ele>
        <time>2020-08-05T10:36:45.349Z</time>
      </trkpt>
      <trkpt lat="63.34691" lon="9.24803">
        <ele>111.07279</ele>
        <time>2020-08-05T10:37:30.337Z</time>
      </trkpt>
      <trkpt lat="63.34868" lon="9.25107">
        <ele>91.179538</ele>
        <time>2020-08-05T10:37:50.351Z</time>
      </trkpt>
      <trkpt lat="63.34857" lon="9.25586">
        <ele>68.382997</ele>
        <time>2020-08-05T10:38:11.329Z</time>
      </trkpt>
      <trkpt lat="63.34646" lon="9.25741">
        <ele>49.404217</ele>
        <time>2020-08-05T10:38:31.314Z</time>
      </trkpt>
      <trkpt lat="63.3464" lon="9.26148">
        <ele>42.679862</ele>
        <time>2020-08-05T10:38:51.395Z</time>
      </trkpt>
      <trkpt lat="63.34781" lon="9.26523">
        <ele>49.235655</ele>
        <time>2020-08-05T10:39:48.364Z</time>
      </trkpt>
      <trkpt lat="63.34911" lon="9.2689">
        <ele>52.119658</ele>
        <time>2020-08-05T10:41:12.335Z</time>
      </trkpt>
      <trkpt lat="63.35064" lon="9.27342">
        <ele>46.723958</ele>
        <time>2020-08-05T10:41:53.339Z</time>
      </trkpt>
      <trkpt lat="63.35253" lon="9.27529">
        <ele>48.448344</ele>
        <time>2020-08-05T10:42:37.348Z</time>
      </trkpt>
      <trkpt lat="63.35331" lon="9.27953">
        <ele>50.607263</ele>
        <time>2020-08-05T10:43:45.372Z</time>
      </trkpt>
      <trkpt lat="63.35342" lon="9.28396">
        <ele>47.606962</ele>
        <time>2020-08-05T10:44:35.319Z</time>
      </trkpt>
      <trkpt lat="63.3552" lon="9.28611">
        <ele>53.322383</ele>
        <time>2020-08-05T10:45:55.343Z</time>
      </trkpt>
      <trkpt lat="63.35692" lon="9.28634">
        <ele>60.981847</ele>
        <time>2020-08-05T10:48:56.358Z</time>
      </trkpt>
      <trkpt lat="63.35552" lon="9.2897">
        <ele>63.803954</ele>
        <time>2020-08-05T10:50:14.361Z</time>
      </trkpt>
      <trkpt lat="63.35442" lon="9.29367">
        <ele>64.452929</ele>
        <time>2020-08-05T10:51:11.336Z</time>
      </trkpt>
      <trkpt lat="63.35534" lon="9.29893">
        <ele>58.604261</ele>
        <time>2020-08-05T10:51:51.369Z</time>
      </trkpt>
      <trkpt lat="63.35646" lon="9.30271">
        <ele>64.971504</ele>
        <time>2020-08-05T10:53:02.336Z</time>
      </trkpt>
      <trkpt lat="63.35722" lon="9.30687">
        <ele>75.58741</ele>
        <time>2020-08-05T10:54:45.332Z</time>
      </trkpt>
      <trkpt lat="63.3568" lon="9.31098">
        <ele>84.710776</ele>
        <time>2020-08-05T10:56:17.359Z</time>
      </trkpt>
      <trkpt lat="63.35584" lon="9.31466">
        <ele>87.700412</ele>
        <time>2020-08-05T10:57:28.391Z</time>
      </trkpt>
      <trkpt lat="63.35623" lon="9.3192">
        <ele>87.408877</ele>
        <time>2020-08-05T10:58:32.346Z</time>
      </trkpt>
      <trkpt lat="63.35723" lon="9.32346">
        <ele>87.711227</ele>
        <time>2020-08-05T10:59:41.353Z</time>
      </trkpt>
      <trkpt lat="63.35733" lon="9.32824">
        <ele>84.143017</ele>
        <time>2020-08-05T11:00:38.330Z</time>
      </trkpt>
      <trkpt lat="63.35634" lon="9.33259">
        <ele>85.290733</ele>
        <time>2020-08-05T11:22:51.395Z</time>
      </trkpt>
      <trkpt lat="63.3566" lon="9.33687">
        <ele>83.256524</ele>
        <time>2020-08-05T11:23:33.339Z</time>
      </trkpt>
      <trkpt lat="63.35621" lon="9.34128">
        <ele>89.802978</ele>
        <time>2020-08-05T11:24:40.325Z</time>
      </trkpt>
      <trkpt lat="63.35562" lon="9.34528">
        <ele>107.810434</ele>
        <time>2020-08-05T11:26:51.344Z</time>
      </trkpt>
      <trkpt lat="63.35661" lon="9.34892">
        <ele>125.588631</ele>
        <time>2020-08-05T11:29:13.347Z</time>
      </trkpt>
      <trkpt lat="63.35653" lon="9.35311">
        <ele>143.999522</ele>
        <time>2020-08-05T11:31:23.397Z</time>
      </trkpt>
      <trkpt lat="63.35569" lon="9.3569">
        <ele>152.833386</ele>
        <time>2020-08-05T11:33:24.342Z</time>
      </trkpt>
      <trkpt lat="63.35404" lon="9.35893">
        <ele>170.816417</ele>
        <time>2020-08-05T11:35:59.338Z</time>
      </trkpt>
      <trkpt lat="63.35566" lon="9.36067">
        <ele>181.746499</ele>
        <time>2020-08-05T11:38:18.363Z</time>
      </trkpt>
      <trkpt lat="63.3563" lon="9.36526">
        <ele>185.272337</ele>
        <time>2020-08-05T11:39:22.359Z</time>
      </trkpt>
      <trkpt lat="63.35668" lon="9.37071">
        <ele>176.712663</ele>
        <time>2020-08-05T11:39:48.354Z</time>
      </trkpt>
      <trkpt lat="63.35624" lon="9.37527">
        <ele>165.387728</ele>
        <time>2020-08-05T11:40:08.334Z</time>
      </trkpt>
      <trkpt lat="63.35552" lon="9.3798">
        <ele>153.308793</ele>
        <time>2020-08-05T11:40:40.336Z</time>
      </trkpt>
      <trkpt lat="63.35566" lon="9.38493">
        <ele>151.623497</ele>
        <time>2020-08-05T11:41:21.375Z</time>
      </trkpt>
      <trkpt lat="63.35527" lon="9.3899">
        <ele>144.458069</ele>
        <time>2020-08-05T11:41:41.337Z</time>
      </trkpt>
      <trkpt lat="63.35436" lon="9.39383">
        <ele>158.9904</ele>
        <time>2020-08-05T11:43:00.334Z</time>
      </trkpt>
      <trkpt lat="63.35277" lon="9.39629">
        <ele>173.025474</ele>
        <time>2020-08-05T11:45:04.341Z</time>
      </trkpt>
      <trkpt lat="63.35083" lon="9.39835">
        <ele>171.203765</ele>
        <time>2020-08-05T11:46:01.323Z</time>
      </trkpt>
      <trkpt lat="63.34956" lon="9.40236">
        <ele>163.023853</ele>
        <time>2020-08-05T11:46:57.326Z</time>
      </trkpt>
      <trkpt lat="63.34784" lon="9.40448">
        <ele>172.520665</ele>
        <time>2020-08-05T11:48:13.350Z</time>
      </trkpt>
      <trkpt lat="63.34659" lon="9.40815">
        <ele>193.875592</ele>
        <time>2020-08-05T11:49:45.352Z</time>
      </trkpt>
      <trkpt lat="63.34513" lon="9.41112">
        <ele>192.942626</ele>
        <time>2020-08-05T11:50:58.346Z</time>
      </trkpt>
      <trkpt lat="63.34399" lon="9.41498">
        <ele>177.457605</ele>
        <time>2020-08-05T11:51:58.330Z</time>
      </trkpt>
      <trkpt lat="63.34294" lon="9.41865">
        <ele>180.545265</ele>
        <time>2020-08-05T11:53:01.334Z</time>
      </trkpt>
      <trkpt lat="63.34156" lon="9.42166">
        <ele>191.529198</ele>
        <time>2020-08-05T11:54:40.346Z</time>
      </trkpt>
      <trkpt lat="63.33997" lon="9.42432">
        <ele>199.542547</ele>
        <time>2020-08-05T11:56:09.330Z</time>
      </trkpt>
      <trkpt lat="63.33811" lon="9.42562">
        <ele>213.496343</ele>
        <time>2020-08-05T11:58:10.357Z</time>
      </trkpt>
      <trkpt lat="63.33632" lon="9.42701">
        <ele>218.542509</ele>
        <time>2020-08-05T11:59:51.334Z</time>
      </trkpt>
      <trkpt lat="63.33438" lon="9.4278">
        <ele>221.62581</ele>
        <time>2020-08-05T12:01:04.362Z</time>
      </trkpt>
      <trkpt lat="63.33242" lon="9.43024">
        <ele>229.687334</ele>
        <time>2020-08-05T12:02:08.376Z</time>
      </trkpt>
      <trkpt lat="63.33045" lon="9.43226">
        <ele>231.627747</ele>
        <time>2020-08-05T12:03:14.322Z</time>
      </trkpt>
      <trkpt lat="63.32816" lon="9.43317">
        <ele>231.939829</ele>
        <time>2020-08-05T12:04:13.320Z</time>
      </trkpt>
      <trkpt lat="63.32635" lon="9.43538">
        <ele>233.86622</ele>
        <time>2020-08-05T12:05:31.322Z</time>
      </trkpt>
      <trkpt lat="63.32441" lon="9.43517">
        <ele>237.471874</ele>
        <time>2020-08-05T12:10:33.333Z</time>
      </trkpt>
      <trkpt lat="63.32234" lon="9.43483">
        <ele>237.357284</ele>
        <time>2020-08-05T12:11:46.373Z</time>
      </trkpt>
      <trkpt lat="63.32015" lon="9.43446">
        <ele>244.1259</ele>
        <time>2020-08-05T12:13:05.332Z</time>
      </trkpt>
      <trkpt lat="63.31802" lon="9.43367">
        <ele>252.182313</ele>
        <time>2020-08-05T12:14:25.379Z</time>
      </trkpt>
      <trkpt lat="63.316" lon="9.43289">
        <ele>253.959538</ele>
        <time>2020-08-05T12:15:48.339Z</time>
      </trkpt>
      <trkpt lat="63.31463" lon="9.43584">
        <ele>266.109284</ele>
        <time>2020-08-05T12:17:30.359Z</time>
      </trkpt>
      <trkpt lat="63.31324" lon="9.43616">
        <ele>287.480705</ele>
        <time>2020-08-05T12:20:04.325Z</time>
      </trkpt>
      <trkpt lat="63.31184" lon="9.43412">
        <ele>306.443015</ele>
        <time>2020-08-05T12:22:33.336Z</time>
      </trkpt>
      <trkpt lat="63.31004" lon="9.43283">
        <ele>320.143518</ele>
        <time>2020-08-05T12:25:03.334Z</time>
      </trkpt>
      <trkpt lat="63.30886" lon="9.43592">
        <ele>334.2035</ele>
        <time>2020-08-05T12:27:28.394Z</time>
      </trkpt>
      <trkpt lat="63.30818" lon="9.43983">
        <ele>346.189378</ele>
        <time>2020-08-05T12:29:38.358Z</time>
      </trkpt>
      <trkpt lat="63.30744" lon="9.44378">
        <ele>358.033525</ele>
        <time>2020-08-05T12:32:01.354Z</time>
      </trkpt>
      <trkpt lat="63.30662" lon="9.44766">
        <ele>369.230319</ele>
        <time>2020-08-05T12:34:25.354Z</time>
      </trkpt>
      <trkpt lat="63.30686" lon="9.45199">
        <ele>379.018258</ele>
        <time>2020-08-05T12:36:21.346Z</time>
      </trkpt>
      <trkpt lat="63.30724" lon="9.45631">
        <ele>393.532796</ele>
        <time>2020-08-05T12:38:35.336Z</time>
      </trkpt>
      <trkpt lat="63.30773" lon="9.46041">
        <ele>408.828802</ele>
        <time>2020-08-05T12:40:31.335Z</time>
      </trkpt>
      <trkpt lat="63.30846" lon="9.46446">
        <ele>420.514163</ele>
        <time>2020-08-05T12:42:51.357Z</time>
      </trkpt>
      <trkpt lat="63.30855" lon="9.46863">
        <ele>435.34531</ele>
        <time>2020-08-05T12:45:23.366Z</time>
      </trkpt>
      <trkpt lat="63.30913" lon="9.47273">
        <ele>446.996563</ele>
        <time>2020-08-05T12:47:33.352Z</time>
      </trkpt>
      <trkpt lat="63.31034" lon="9.47605">
        <ele>457.768598</ele>
        <time>2020-08-05T12:49:33.326Z</time>
      </trkpt>
      <trkpt lat="63.31105" lon="9.48047">
        <ele>460.293953</ele>
        <time>2020-08-05T12:51:01.356Z</time>
      </trkpt>
      <trkpt lat="63.31177" lon="9.48491">
        <ele>455.184433</ele>
        <time>2020-08-05T12:51:43.386Z</time>
      </trkpt>
      <trkpt lat="63.31262" lon="9.49079">
        <ele>448.326637</ele>
        <time>2020-08-05T12:52:23.337Z</time>
      </trkpt>
      <trkpt lat="63.31302" lon="9.49685">
        <ele>442.449676</ele>
        <time>2020-08-05T12:53:03.371Z</time>
      </trkpt>
      <trkpt lat="63.31344" lon="9.50172">
        <ele>439.618313</ele>
        <time>2020-08-05T12:57:59.360Z</time>
      </trkpt>
      <trkpt lat="63.31414" lon="9.50664">
        <ele>434.967144</ele>
        <time>2020-08-05T12:58:42.333Z</time>
      </trkpt>
      <trkpt lat="63.31489" lon="9.51175">
        <ele>426.448921</ele>
        <time>2020-08-05T12:59:07.392Z</time>
      </trkpt>
      <trkpt lat="63.31559" lon="9.51666">
        <ele>414.141275</ele>
        <time>2020-08-05T12:59:27.363Z</time>
      </trkpt>
      <trkpt lat="63.31729" lon="9.51993">
        <ele>396.331288</ele>
        <time>2020-08-05T12:59:47.325Z</time>
      </trkpt>
      <trkpt lat="63.31957" lon="9.52285">
        <ele>371.609703</ele>
        <time>2020-08-05T13:00:07.362Z</time>
      </trkpt>
      <trkpt lat="63.32089" lon="9.52671">
        <ele>350.320606</ele>
        <time>2020-08-05T13:00:27.342Z</time>
      </trkpt>
      <trkpt lat="63.32051" lon="9.53029">
        <ele>348.7143</ele>
        <time>2020-08-05T13:01:05.362Z</time>
      </trkpt>
      <trkpt lat="63.31902" lon="9.53371">
        <ele>356.569247</ele>
        <time>2020-08-05T13:02:05.363Z</time>
      </trkpt>
      <trkpt lat="63.31796" lon="9.53789">
        <ele>351.731046</ele>
        <time>2020-08-05T13:02:50.333Z</time>
      </trkpt>
      <trkpt lat="63.31708" lon="9.54249">
        <ele>349.719761</ele>
        <time>2020-08-05T13:03:35.367Z</time>
      </trkpt>
      <trkpt lat="63.31648" lon="9.54712">
        <ele>351.223014</ele>
        <time>2020-08-05T13:04:38.343Z</time>
      </trkpt>
      <trkpt lat="63.31586" lon="9.55182">
        <ele>350.670641</ele>
        <time>2020-08-05T13:05:32.388Z</time>
      </trkpt>
      <trkpt lat="63.31467" lon="9.55594">
        <ele>352.437968</ele>
        <time>2020-08-05T13:06:24.366Z</time>
      </trkpt>
      <trkpt lat="63.31247" lon="9.55722">
        <ele>350.142003</ele>
        <time>2020-08-05T13:07:10.422Z</time>
      </trkpt>
      <trkpt lat="63.31095" lon="9.56022">
        <ele>353.730456</ele>
        <time>2020-08-05T13:08:17.345Z</time>
      </trkpt>
      <trkpt lat="63.31027" lon="9.56459">
        <ele>354.53846</ele>
        <time>2020-08-05T13:09:29.364Z</time>
      </trkpt>
      <trkpt lat="63.30931" lon="9.56865">
        <ele>354.550287</ele>
        <time>2020-08-05T13:10:43.363Z</time>
      </trkpt>
      <trkpt lat="63.30804" lon="9.57279">
        <ele>352.580668</ele>
        <time>2020-08-05T13:11:39.345Z</time>
      </trkpt>
      <trkpt lat="63.30683" lon="9.57674">
        <ele>347.676217</ele>
        <time>2020-08-05T13:12:19.324Z</time>
      </trkpt>
      <trkpt lat="63.30557" lon="9.58221">
        <ele>337.216444</ele>
        <time>2020-08-05T13:12:52.366Z</time>
      </trkpt>
      <trkpt lat="63.30467" lon="9.58629">
        <ele>327.923882</ele>
        <time>2020-08-05T13:13:14.364Z</time>
      </trkpt>
      <trkpt lat="63.30328" lon="9.58954">
        <ele>317.46712</ele>
        <time>2020-08-05T13:13:34.366Z</time>
      </trkpt>
      <trkpt lat="63.302" lon="9.59285">
        <ele>308.340768</ele>
        <time>2020-08-05T13:13:54.363Z</time>
      </trkpt>
      <trkpt lat="63.29941" lon="9.59686">
        <ele>299.196036</ele>
        <time>2020-08-05T13:14:32.328Z</time>
      </trkpt>
      <trkpt lat="63.29741" lon="9.59927">
        <ele>296.568054</ele>
        <time>2020-08-05T13:15:12.351Z</time>
      </trkpt>
      <trkpt lat="63.29554" lon="9.60214">
        <ele>290.079823</ele>
        <time>2020-08-05T13:15:52.342Z</time>
      </trkpt>
      <trkpt lat="63.29297" lon="9.60672">
        <ele>282.904801</ele>
        <time>2020-08-05T13:16:32.337Z</time>
      </trkpt>
      <trkpt lat="63.29042" lon="9.60912">
        <ele>272.159306</ele>
        <time>2020-08-05T13:17:06.358Z</time>
      </trkpt>
      <trkpt lat="63.28937" lon="9.61244">
        <ele>261.715323</ele>
        <time>2020-08-05T13:17:27.367Z</time>
      </trkpt>
      <trkpt lat="63.28854" lon="9.6162">
        <ele>253.802672</ele>
        <time>2020-08-05T13:17:47.388Z</time>
      </trkpt>
      <trkpt lat="63.28795" lon="9.62064">
        <ele>246.656244</ele>
        <time>2020-08-05T13:18:07.382Z</time>
      </trkpt>
      <trkpt lat="63.28819" lon="9.62577">
        <ele>231.37318</ele>
        <time>2020-08-05T13:18:27.338Z</time>
      </trkpt>
      <trkpt lat="63.28724" lon="9.63004">
        <ele>223.064394</ele>
        <time>2020-08-05T13:18:50.342Z</time>
      </trkpt>
      <trkpt lat="63.28617" lon="9.6342">
        <ele>215.835467</ele>
        <time>2020-08-05T13:19:37.400Z</time>
      </trkpt>
      <trkpt lat="63.28545" lon="9.63891">
        <ele>211.579337</ele>
        <time>2020-08-05T13:20:06.361Z</time>
      </trkpt>
      <trkpt lat="63.28427" lon="9.64268">
        <ele>208.53512</ele>
        <time>2020-08-05T13:21:09.323Z</time>
      </trkpt>
      <trkpt lat="63.28291" lon="9.64793">
        <ele>204.024904</ele>
        <time>2020-08-05T13:22:02.375Z</time>
      </trkpt>
      <trkpt lat="63.28161" lon="9.64521">
        <ele>218.995129</ele>
        <time>2020-08-05T13:23:52.326Z</time>
      </trkpt>
      <trkpt lat="63.28004" lon="9.64273">
        <ele>230.477988</ele>
        <time>2020-08-05T13:30:02.362Z</time>
      </trkpt>
      <trkpt lat="63.27844" lon="9.64017">
        <ele>234.945653</ele>
        <time>2020-08-05T13:31:42.381Z</time>
      </trkpt>
      <trkpt lat="63.27673" lon="9.64067">
        <ele>236.575612</ele>
        <time>2020-08-05T13:32:54.345Z</time>
      </trkpt>
      <trkpt lat="63.27641" lon="9.64513">
        <ele>234.803321</ele>
        <time>2020-08-05T13:33:52.356Z</time>
      </trkpt>
      <trkpt lat="63.27687" lon="9.64974">
        <ele>231.509747</ele>
        <time>2020-08-05T13:34:32.354Z</time>
      </trkpt>
      <trkpt lat="63.27799" lon="9.65384">
        <ele>228.703185</ele>
        <time>2020-08-05T13:35:12.411Z</time>
      </trkpt>
      <trkpt lat="63.27955" lon="9.65876">
        <ele>224.075916</ele>
        <time>2020-08-05T13:35:52.358Z</time>
      </trkpt>
      <trkpt lat="63.28102" lon="9.66357">
        <ele>219.420761</ele>
        <time>2020-08-05T13:36:34.364Z</time>
      </trkpt>
      <trkpt lat="63.28234" lon="9.66737">
        <ele>224.754727</ele>
        <time>2020-08-05T13:37:29.367Z</time>
      </trkpt>
      <trkpt lat="63.28302" lon="9.67202">
        <ele>215.023392</ele>
        <time>2020-08-05T13:38:12.366Z</time>
      </trkpt>
      <trkpt lat="63.28414" lon="9.67773">
        <ele>204.295655</ele>
        <time>2020-08-05T13:38:50.329Z</time>
      </trkpt>
      <trkpt lat="63.28482" lon="9.68198">
        <ele>200.134384</ele>
        <time>2020-08-05T13:39:12.381Z</time>
      </trkpt>
      <trkpt lat="63.28603" lon="9.68669">
        <ele>200.902942</ele>
        <time>2020-08-05T13:39:52.355Z</time>
      </trkpt>
      <trkpt lat="63.28646" lon="9.69172">
        <ele>199.681446</ele>
        <time>2020-08-05T13:40:37.350Z</time>
      </trkpt>
      <trkpt lat="63.28673" lon="9.69596">
        <ele>198.830522</ele>
        <time>2020-08-05T13:41:19.399Z</time>
      </trkpt>
      <trkpt lat="63.28605" lon="9.69943">
        <ele>216.275228</ele>
        <time>2020-08-05T13:43:11.357Z</time>
      </trkpt>
      <trkpt lat="63.2862" lon="9.7036">
        <ele>232.697245</ele>
        <time>2020-08-05T13:45:36.350Z</time>
      </trkpt>
      <trkpt lat="63.28531" lon="9.70744">
        <ele>247.451917</ele>
        <time>2020-08-05T13:47:49.360Z</time>
      </trkpt>
      <trkpt lat="63.28347" lon="9.71067">
        <ele>247.470928</ele>
        <time>2020-08-05T13:48:50.335Z</time>
      </trkpt>
      <trkpt lat="63.28131" lon="9.71209">
        <ele>244.518896</ele>
        <time>2020-08-05T13:49:37.343Z</time>
      </trkpt>
      <trkpt lat="63.27939" lon="9.7144">
        <ele>239.188065</ele>
        <time>2020-08-05T13:50:27.397Z</time>
      </trkpt>
      <trkpt lat="63.2772" lon="9.71627">
        <ele>229.424548</ele>
        <time>2020-08-05T13:50:53.379Z</time>
      </trkpt>
      <trkpt lat="63.27582" lon="9.72052">
        <ele>215.445621</ele>
        <time>2020-08-05T13:51:19.362Z</time>
      </trkpt>
      <trkpt lat="63.27542" lon="9.7256">
        <ele>205.436956</ele>
        <time>2020-08-05T13:51:44.340Z</time>
      </trkpt>
      <trkpt lat="63.27607" lon="9.73073">
        <ele>194.99761</ele>
        <time>2020-08-05T13:52:06.356Z</time>
      </trkpt>
      <trkpt lat="63.27647" lon="9.73642">
        <ele>193.325679</ele>
        <time>2020-08-05T13:52:46.370Z</time>
      </trkpt>
      <trkpt lat="63.27798" lon="9.73977">
        <ele>195.276729</ele>
        <time>2020-08-05T13:53:48.355Z</time>
      </trkpt>
      <trkpt lat="63.27807" lon="9.74439">
        <ele>196.301106</ele>
        <time>2020-08-05T13:54:46.379Z</time>
      </trkpt>
      <trkpt lat="63.27772" lon="9.75004">
        <ele>191.539321</ele>
        <time>2020-08-05T13:55:37.359Z</time>
      </trkpt>
      <trkpt lat="63.2772" lon="9.75511">
        <ele>187.808001</ele>
        <time>2020-08-05T13:56:23.383Z</time>
      </trkpt>
      <trkpt lat="63.2773" lon="9.76001">
        <ele>189.196694</ele>
        <time>2020-08-05T13:57:13.353Z</time>
      </trkpt>
      <trkpt lat="63.27799" lon="9.76426">
        <ele>194.142255</ele>
        <time>2020-08-05T13:58:22.414Z</time>
      </trkpt>
      <trkpt lat="63.27838" lon="9.76895">
        <ele>193.968086</ele>
        <time>2020-08-05T13:59:17.360Z</time>
      </trkpt>
      <trkpt lat="63.27924" lon="9.77346">
        <ele>189.904925</ele>
        <time>2020-08-05T14:00:05.380Z</time>
      </trkpt>
      <trkpt lat="63.27988" lon="9.77785">
        <ele>195.06266</ele>
        <time>2020-08-05T14:01:06.366Z</time>
      </trkpt>
      <trkpt lat="63.28155" lon="9.78004">
        <ele>189.257276</ele>
        <time>2020-08-05T14:01:48.351Z</time>
      </trkpt>
      <trkpt lat="63.28227" lon="9.78457">
        <ele>181.49863</ele>
        <time>2020-08-05T14:02:28.406Z</time>
      </trkpt>
      <trkpt lat="63.28224" lon="9.79013">
        <ele>165.91867</ele>
        <time>2020-08-05T14:03:08.362Z</time>
      </trkpt>
      <trkpt lat="63.28109" lon="9.79508">
        <ele>138.125016</ele>
        <time>2020-08-05T14:03:47.364Z</time>
      </trkpt>
      <trkpt lat="63.28063" lon="9.80077">
        <ele>111.753436</ele>
        <time>2020-08-05T14:04:28.372Z</time>
      </trkpt>
      <trkpt lat="63.28077" lon="9.80566">
        <ele>81.21912</ele>
        <time>2020-08-05T14:05:08.380Z</time>
      </trkpt>
      <trkpt lat="63.2809" lon="9.81003">
        <ele>59.802913</ele>
        <time>2020-08-05T14:06:16.389Z</time>
      </trkpt>
      <trkpt lat="63.28294" lon="9.81247">
        <ele>54.066974</ele>
        <time>2020-08-05T14:06:56.379Z</time>
      </trkpt>
      <trkpt lat="63.28541" lon="9.81266">
        <ele>52.881209</ele>
        <time>2020-08-05T14:07:36.349Z</time>
      </trkpt>
      <trkpt lat="63.28739" lon="9.81535">
        <ele>49.805213</ele>
        <time>2020-08-05T14:08:16.346Z</time>
      </trkpt>
      <trkpt lat="63.28889" lon="9.81887">
        <ele>46.626136</ele>
        <time>2020-08-05T14:08:56.368Z</time>
      </trkpt>
      <trkpt lat="63.29027" lon="9.82232">
        <ele>50.555271</ele>
        <time>2020-08-05T14:09:39.353Z</time>
      </trkpt>
      <trkpt lat="63.29164" lon="9.82644">
        <ele>48.807481</ele>
        <time>2020-08-05T14:10:33.401Z</time>
      </trkpt>
      <trkpt lat="63.29373" lon="9.82842">
        <ele>46.746377</ele>
        <time>2020-08-05T14:11:15.359Z</time>
      </trkpt>
      <trkpt lat="63.29603" lon="9.82845">
        <ele>44.196154</ele>
        <time>2020-08-05T14:11:55.399Z</time>
      </trkpt>
      <trkpt lat="63.29764" lon="9.82954">
        <ele>42.992699</ele>
        <time>2020-08-05T14:12:48.363Z</time>
      </trkpt>
      <trkpt lat="63.29736" lon="9.83469">
        <ele>45.117027</ele>
        <time>2020-08-05T14:13:43.379Z</time>
      </trkpt>
      <trkpt lat="63.29711" lon="9.8396">
        <ele>48.077134</ele>
        <time>2020-08-05T14:14:43.361Z</time>
      </trkpt>
      <trkpt lat="63.29686" lon="9.84412">
        <ele>51.563454</ele>
        <time>2020-08-05T14:15:43.371Z</time>
      </trkpt>
      <trkpt lat="63.29787" lon="9.84546">
        <ele>47.913508</ele>
        <time>2020-08-05T14:17:51.361Z</time>
      </trkpt>
      <trkpt lat="63.29683" lon="9.84467">
        <ele>52.274802</ele>
        <time>2020-08-05T15:39:08.578Z</time>
      </trkpt>
      <trkpt lat="63.2971" lon="9.83987">
        <ele>55.610299</ele>
        <time>2020-08-05T15:40:05.575Z</time>
      </trkpt>
      <trkpt lat="63.29775" lon="9.8357">
        <ele>52.1333</ele>
        <time>2020-08-05T15:40:56.577Z</time>
      </trkpt>
      <trkpt lat="63.29932" lon="9.83693">
        <ele>50.193042</ele>
        <time>2020-08-05T15:42:03.602Z</time>
      </trkpt>
    </trkseg>
  </trk>
</gpx>